Time;durP1;ratioP1;P1;durP2;ratioP2;P2;SDS_P1;SDS_P2;PMS_P1;PMS_P2;Temp;Humidity;BMP_temperature;BMP_pressure;BME280_temperature;BME280_humidity;BME280_pressure;Samples;Min_cycle;Max_cycle;Signal;HPM_P1;HPM_P2
2023/06/11 00:00:41;;;;;;;13.57;10.10;;;;;;;19.97;66.96;101304.09;5093974;28;20101;-48
2023/06/11 00:03:06;;;;;;;16.35;9.90;;;;;;;19.95;67.57;101305.81;5093119;28;20028;-45
2023/06/11 00:05:32;;;;;;;13.80;10.10;;;;;;;19.86;67.67;101298.91;5093529;28;20140;-44
2023/06/11 00:08:00;;;;;;;13.35;10.75;;;;;;;19.74;68.01;101298.00;5093259;28;20100;-48
2023/06/11 00:10:27;;;;;;;14.65;11.63;;;;;;;19.68;68.49;101292.78;5093678;28;20034;-49
2023/06/11 00:12:52;;;;;;;14.48;9.82;;;;;;;19.65;69.63;101291.91;5093853;28;20047;-48
2023/06/11 00:15:17;;;;;;;13.93;11.13;;;;;;;19.57;69.69;101291.91;5092732;28;20093;-45
2023/06/11 00:17:43;;;;;;;14.80;10.57;;;;;;;19.52;70.01;101296.25;5093686;28;20081;-47
2023/06/11 00:20:11;;;;;;;14.82;10.90;;;;;;;19.53;70.56;101291.03;5093519;28;20472;-48
2023/06/11 00:22:38;;;;;;;13.85;10.23;;;;;;;19.41;70.80;101289.28;5092331;28;20052;-48
2023/06/11 00:25:05;;;;;;;17.42;11.38;;;;;;;19.41;70.73;101288.44;5093573;28;20024;-47
2023/06/11 00:27:31;;;;;;;13.90;11.30;;;;;;;19.38;71.89;101289.31;5093191;28;20107;-43
2023/06/11 00:29:56;;;;;;;15.27;11.52;;;;;;;19.25;72.15;101292.78;5092689;28;20107;-45
2023/06/11 00:32:21;;;;;;;14.18;11.05;;;;;;;19.12;72.54;101293.63;5093174;28;20529;-46
2023/06/11 00:34:47;;;;;;;16.98;11.57;;;;;;;19.15;73.06;101288.44;5093310;28;20028;-49
2023/06/11 00:37:13;;;;;;;15.20;11.75;;;;;;;18.97;74.38;101287.53;5092923;28;20111;-48
2023/06/11 00:39:38;;;;;;;14.35;11.82;;;;;;;19.06;73.78;101291.91;5093184;28;20112;-46
2023/06/11 00:42:04;;;;;;;16.23;11.75;;;;;;;19.00;73.89;101289.25;5093384;28;20048;-46
2023/06/11 00:44:29;;;;;;;14.63;11.63;;;;;;;18.97;74.94;101290.13;5091946;28;20027;-47
2023/06/11 00:46:57;;;;;;;14.52;12.00;;;;;;;18.76;76.30;101286.56;5093303;28;20020;-46
2023/06/11 00:49:22;;;;;;;;;;;;;;;18.93;70.68;101285.78;5093254;28;20028;-49
2023/06/11 00:51:48;;;;;;;13.68;11.90;;;;;;;18.80;75.87;101287.47;5092523;28;20309;-49
2023/06/11 00:54:16;;;;;;;16.35;12.50;;;;;;;18.66;76.25;101290.03;5093234;28;20065;-49
2023/06/11 00:56:45;;;;;;;16.75;12.73;;;;;;;18.53;77.81;101290.84;5093161;28;20020;-48
2023/06/11 00:59:13;;;;;;;15.82;12.57;;;;;;;18.51;78.54;101289.97;5092251;28;20055;-47
2023/06/11 01:01:42;;;;;;;18.42;12.75;;;;;;;18.52;77.91;101289.09;5092672;28;20024;-45
2023/06/11 01:04:17;;;;;;;18.52;12.63;;;;;;;18.46;78.62;101289.94;5092032;28;20016;-46
2023/06/11 01:06:46;;;;;;;17.75;12.88;;;;;;;18.51;79.74;101287.34;5093162;28;20031;-44
2023/06/11 01:09:12;;;;;;;18.95;13.85;;;;;;;18.41;79.08;101292.53;5093066;28;20023;-45
2023/06/11 01:11:38;;;;;;;18.50;13.20;;;;;;;18.46;79.00;101289.06;5091810;28;20024;-44
2023/06/11 01:14:05;;;;;;;16.50;13.27;;;;;;;18.41;79.20;101292.53;5092865;28;20020;-44
2023/06/11 01:16:53;;;;;;;20.13;13.57;;;;;;;18.42;77.80;101288.19;5092617;28;20031;-44
2023/06/11 01:19:29;;;;;;;18.23;14.32;;;;;;;18.47;78.98;101290.81;5091998;28;20044;-45
2023/06/11 01:21:59;;;;;;;20.48;14.25;;;;;;;18.36;80.44;101291.66;5092877;28;20077;-43
2023/06/11 01:25:02;;;;;;;16.63;14.02;;;;;;;18.34;78.62;101295.97;5092484;28;20498;-44
2023/06/11 01:27:56;;;;;;;17.73;14.48;;;;;;;18.31;79.77;101295.09;5091852;28;20024;-44
2023/06/11 01:30:23;;;;;;;18.25;15.38;;;;;;;18.29;80.54;101295.09;5092458;28;20437;-43
2023/06/11 01:32:56;;;;;;;20.33;15.27;;;;;;;18.28;81.25;101295.94;5091930;28;20062;-45
2023/06/11 01:35:22;;;;;;;20.67;15.23;;;;;;;18.25;80.88;101302.03;5092486;28;20032;-45
2023/06/11 01:37:55;;;;;;;17.92;15.50;;;;;;;18.21;80.73;101300.25;5092623;28;20027;-44
2023/06/11 01:40:24;;;;;;;17.75;15.35;;;;;;;18.07;82.27;101299.31;5091771;28;20056;-46
2023/06/11 01:42:49;;;;;;;22.48;16.38;;;;;;;18.20;81.91;101301.13;5092849;28;20019;-46
2023/06/11 01:45:18;;;;;;;17.92;16.02;;;;;;;18.08;82.24;101304.53;5092732;28;20024;-44
2023/06/11 01:47:46;;;;;;;18.42;16.17;;;;;;;18.10;83.14;101305.44;5091852;28;20387;-45
2023/06/11 01:50:12;;;;;;;20.52;15.82;;;;;;;18.13;82.56;101308.91;5092740;28;20063;-44
2023/06/11 01:52:38;;;;;;;18.95;16.63;;;;;;;18.21;82.59;101294.19;5092288;28;20102;-47
2023/06/11 01:55:07;;;;;;;20.20;16.25;;;;;;;18.02;82.83;101299.28;5091893;28;20099;-45
2023/06/11 01:57:33;;;;;;;19.85;16.45;;;;;;;17.99;83.49;101304.50;5092189;28;20035;-44
2023/06/11 01:59:59;;;;;;;20.13;16.63;;;;;;;17.85;84.21;101295.69;5092432;28;20016;-44
2023/06/11 02:02:27;;;;;;;19.77;17.42;;;;;;;17.86;84.87;101300.03;5091260;28;20032;-44
2023/06/11 02:04:53;;;;;;;21.08;17.42;;;;;;;17.83;84.55;101297.41;5092560;28;20035;-45
2023/06/11 02:07:18;;;;;;;21.63;16.85;;;;;;;17.81;84.92;101299.13;5092235;28;20036;-48
2023/06/11 02:09:43;;;;;;;19.40;17.40;;;;;;;17.87;85.20;101300.03;5092319;28;20031;-46
2023/06/11 02:12:09;;;;;;;20.75;17.67;;;;;;;17.78;84.88;101303.44;5096135;28;20027;-49
2023/06/11 02:14:35;;;;;;;19.10;17.05;;;;;;;17.83;85.49;101293.06;5094836;28;20029;-43
2023/06/11 02:17:00;;;;;;;18.60;16.65;;;;;;;17.91;85.03;101298.34;5096209;28;20029;-49
2023/06/11 02:19:25;;;;;;;21.38;16.92;;;;;;;17.80;85.61;101297.38;5095836;28;20160;-46
2023/06/11 02:21:50;;;;;;;19.95;16.40;;;;;;;17.73;85.71;101302.53;5094879;28;20044;-46
2023/06/11 02:24:16;;;;;;;19.35;17.35;;;;;;;17.73;86.64;101302.53;5095565;28;20119;-45
2023/06/11 02:26:41;;;;;;;21.73;17.60;;;;;;;17.86;85.77;101302.66;5095737;28;20020;-47
2023/06/11 02:29:06;;;;;;;19.10;16.58;;;;;;;17.76;86.31;101292.13;5094316;28;20067;-49
2023/06/11 02:31:32;;;;;;;20.27;17.13;;;;;;;17.68;86.74;101298.19;5095338;28;20032;-48
2023/06/11 02:33:57;;;;;;;23.55;17.63;;;;;;;17.56;87.40;101293.75;5095839;28;20539;-47
2023/06/11 02:36:23;;;;;;;19.38;16.73;;;;;;;17.51;87.82;101300.66;5094841;28;20032;-47
2023/06/11 02:38:48;;;;;;;23.33;17.30;;;;;;;17.55;88.38;101305.03;5095588;28;20463;-46
2023/06/11 02:41:15;;;;;;;19.85;17.23;;;;;;;17.42;88.58;101301.44;5095712;28;20028;-45
2023/06/11 02:43:41;;;;;;;23.63;17.90;;;;;;;17.43;88.70;101301.44;5094836;28;20095;-46
2023/06/11 02:46:06;;;;;;;19.60;17.00;;;;;;;17.62;88.57;101304.19;5095657;28;20070;-47
2023/06/11 02:48:31;;;;;;;20.60;18.02;;;;;;;17.40;88.99;101304.03;5095027;28;20032;-47
2023/06/11 02:50:57;;;;;;;20.38;17.88;;;;;;;17.31;89.15;101303.06;5094667;28;20103;-47
2023/06/11 02:53:22;;;;;;;20.42;18.00;;;;;;;17.27;89.97;101299.56;5095086;28;20074;-45
2023/06/11 02:55:48;;;;;;;30.42;17.75;;;;;;;17.26;90.18;101300.41;5095302;28;20034;-44
2023/06/11 02:58:13;;;;;;;19.98;17.40;;;;;;;17.24;90.49;101302.16;5094373;28;20057;-48
2023/06/11 03:00:38;;;;;;;24.33;16.88;;;;;;;17.21;90.99;101307.31;5094791;28;20380;-47
2023/06/11 03:03:03;;;;;;;22.13;18.08;;;;;;;17.12;91.18;101308.13;5095215;28;20056;-48
2023/06/11 03:05:29;;;;;;;19.10;17.08;;;;;;;17.06;91.67;101303.72;5094099;28;20028;-48
2023/06/11 03:07:54;;;;;;;20.40;18.20;;;;;;;17.04;91.91;101300.22;5095007;28;20076;-44
2023/06/11 03:10:20;;;;;;;22.80;18.42;;;;;;;17.06;91.83;101305.44;5094882;28;20117;-44
2023/06/11 03:12:45;;;;;;;21.88;18.00;;;;;;;17.04;92.10;101308.03;5094108;28;20101;-48
2023/06/11 03:15:11;;;;;;;20.88;18.67;;;;;;;16.88;93.42;101308.69;5094697;28;20101;-45
2023/06/11 03:17:36;;;;;;;20.17;17.70;;;;;;;16.87;92.96;101309.56;5094517;28;20035;-46
2023/06/11 03:20:01;;;;;;;22.55;18.30;;;;;;;16.91;93.71;101314.84;5094087;28;20039;-46
2023/06/11 03:22:27;;;;;;;19.55;17.38;;;;;;;16.85;93.72;101300.84;5093201;28;20043;-49
2023/06/11 03:24:52;;;;;;;19.88;17.77;;;;;;;16.83;94.20;101307.78;5093619;28;20136;-48
2023/06/11 03:27:17;;;;;;;20.35;18.08;;;;;;;16.78;94.33;101302.50;5094562;28;20492;-48
2023/06/11 03:29:43;;;;;;;21.65;19.00;;;;;;;16.75;94.93;101313.75;5094455;28;20028;-47
2023/06/11 03:32:08;;;;;;;20.83;18.63;;;;;;;16.66;95.42;101308.44;5093947;28;20523;-47
2023/06/11 03:34:33;;;;;;;20.67;18.67;;;;;;;16.65;95.68;101311.03;5094391;28;20039;-48
2023/06/11 03:36:59;;;;;;;22.00;19.67;;;;;;;16.52;96.28;101321.28;5094342;28;20031;-49
2023/06/11 03:39:24;;;;;;;21.73;19.45;;;;;;;16.58;96.31;101323.13;5093329;28;20401;-48
2023/06/11 03:41:49;;;;;;;22.52;19.63;;;;;;;16.58;96.33;101315.31;5094341;28;20031;-49
2023/06/11 03:44:15;;;;;;;22.42;19.40;;;;;;;16.63;96.27;101314.50;5093815;28;20054;-48
2023/06/11 03:46:40;;;;;;;21.55;19.45;;;;;;;16.61;96.81;101312.72;5093702;28;20088;-49
2023/06/11 03:49:06;;;;;;;23.95;19.90;;;;;;;16.50;97.64;101319.53;5094325;28;20027;-48
2023/06/11 03:51:31;;;;;;;23.02;19.80;;;;;;;16.42;98.12;101315.09;5093843;28;20414;-47
2023/06/11 03:53:56;;;;;;;24.20;20.67;;;;;;;16.35;98.68;101323.66;5093447;28;20107;-48
2023/06/11 03:56:21;;;;;;;22.98;20.67;;;;;;;16.37;98.94;101324.59;5093808;28;20028;-49
2023/06/11 03:58:47;;;;;;;21.77;19.67;;;;;;;16.34;99.93;101324.53;5093932;28;20391;-48
2023/06/11 04:01:14;;;;;;;22.10;20.00;;;;;;;16.35;99.69;101322.81;5093153;28;20028;-47
2023/06/11 04:03:39;;;;;;;23.00;20.60;;;;;;;16.36;99.65;101320.22;5093734;28;20122;-48
2023/06/11 04:06:04;;;;;;;21.45;19.25;;;;;;;16.44;99.26;101318.59;5093960;28;20102;-48
2023/06/11 04:08:30;;;;;;;21.77;19.63;;;;;;;16.50;99.21;101325.63;5092855;28;20054;-47
2023/06/11 04:10:55;;;;;;;21.45;19.25;;;;;;;16.55;99.63;101323.06;5093895;28;20077;-47
2023/06/11 04:13:20;;;;;;;22.23;19.90;;;;;;;16.62;99.76;101324.88;5093513;28;20027;-44
2023/06/11 04:15:46;;;;;;;21.77;19.58;;;;;;;16.62;99.26;101327.50;5092916;28;20031;-49
2023/06/11 04:18:12;;;;;;;21.25;19.15;;;;;;;16.76;99.66;101325.06;5093541;28;20508;-46
2023/06/11 04:20:37;;;;;;;21.88;19.00;;;;;;;16.78;99.24;101320.72;5093284;28;20044;-46
2023/06/11 04:23:02;;;;;;;23.45;18.95;;;;;;;16.85;98.59;101325.16;5092967;28;20044;-47
2023/06/11 04:25:31;;;;;;;22.13;19.90;;;;;;;16.88;98.48;101324.31;5093298;28;20126;-45
2023/06/11 04:27:57;;;;;;;21.33;19.23;;;;;;;17.03;98.12;101329.72;5093665;28;20090;-46
2023/06/11 04:30:22;;;;;;;21.33;19.13;;;;;;;17.16;97.63;101327.22;5092255;28;20441;-47
2023/06/11 04:32:54;;;;;;;21.10;19.02;;;;;;;17.16;96.88;101325.53;5093239;28;20020;-49
2023/06/11 04:35:21;;;;;;;21.65;19.63;;;;;;;17.22;96.53;101335.13;5092433;28;20102;-45
2023/06/11 04:37:47;;;;;;;22.15;19.95;;;;;;;17.26;96.92;101326.47;5093503;28;20024;-47
2023/06/11 04:40:13;;;;;;;23.00;20.58;;;;;;;17.34;97.43;101339.56;5093274;28;20028;-47
2023/06/11 04:42:41;;;;;;;22.88;20.52;;;;;;;17.39;95.82;101333.56;5092195;28;20035;-47
2023/06/11 04:45:08;;;;;;;22.50;20.17;;;;;;;17.48;96.89;101330.16;5093111;28;20418;-49
2023/06/11 04:47:34;;;;;;;21.85;19.55;;;;;;;17.52;95.80;101328.44;5093037;28;20034;-49
2023/06/11 04:50:04;;;;;;;24.67;19.98;;;;;;;17.60;95.87;101339.81;5092426;28;20443;-48
2023/06/11 04:52:35;;;;;;;22.33;20.10;;;;;;;17.65;94.77;101339.84;5092932;28;20073;-48
2023/06/11 04:55:01;;;;;;;22.17;19.98;;;;;;;17.73;94.69;101338.19;5093067;28;20111;-49
2023/06/11 04:57:28;;;;;;;22.20;18.77;;;;;;;17.78;94.89;101333.88;5091970;28;20020;-48
2023/06/11 04:59:53;;;;;;;20.98;18.95;;;;;;;17.90;93.67;101336.56;5092956;28;20467;-49
2023/06/11 05:02:19;;;;;;;22.50;18.60;;;;;;;18.00;93.46;101337.53;5092571;28;20028;-48
2023/06/11 05:04:44;;;;;;;20.67;18.63;;;;;;;18.06;92.19;101332.38;5092238;28;20036;-47
2023/06/11 05:07:09;;;;;;;21.27;17.73;;;;;;;18.17;92.34;101339.38;5092992;28;20031;-50
2023/06/11 05:09:35;;;;;;;21.90;19.60;;;;;;;18.23;91.98;101339.41;5092510;28;20036;-47
2023/06/11 05:12:00;;;;;;;20.45;18.25;;;;;;;18.31;90.56;101337.72;5092151;28;20478;-48
2023/06/11 05:14:25;;;;;;;19.77;17.75;;;;;;;18.38;91.16;101342.09;5092628;28;20089;-48
2023/06/11 05:16:51;;;;;;;21.52;18.73;;;;;;;18.45;90.48;101339.53;5092837;28;20024;-49
2023/06/11 05:19:16;;;;;;;22.65;17.10;;;;;;;18.55;89.34;101346.53;5091822;28;20035;-47
2023/06/11 05:21:41;;;;;;;22.35;18.10;;;;;;;18.66;89.29;101344.84;5092582;28;20055;-45
2023/06/11 05:24:07;;;;;;;19.58;17.58;;;;;;;18.68;88.64;101343.13;5092732;28;20372;-47
2023/06/11 05:26:36;;;;;;;18.75;16.75;;;;;;;18.78;87.14;101356.22;5091625;28;20039;-48
2023/06/11 05:29:03;;;;;;;18.50;16.63;;;;;;;18.84;85.86;101343.19;5092978;28;20100;-48
2023/06/11 05:31:35;;;;;;;17.97;16.10;;;;;;;18.89;86.21;101342.34;5091585;28;20371;-49
2023/06/11 05:34:00;;;;;;;19.33;17.40;;;;;;;18.95;85.72;101341.47;5092864;28;20035;-49
2023/06/11 05:36:27;;;;;;;20.27;16.60;;;;;;;19.05;85.27;101343.25;5092385;28;20387;-50
2023/06/11 05:38:52;;;;;;;18.42;16.10;;;;;;;19.14;85.55;101338.94;5091834;28;20032;-47
2023/06/11 05:41:19;;;;;;;17.33;15.57;;;;;;;19.23;84.47;101344.16;5092572;28;20016;-49
2023/06/11 05:43:45;;;;;;;18.90;17.00;;;;;;;19.31;83.99;101337.19;5092676;28;20032;-49
2023/06/11 05:46:10;;;;;;;19.13;17.13;;;;;;;19.39;83.76;101340.72;5094818;28;20061;-49
2023/06/11 05:48:35;;;;;;;20.08;17.67;;;;;;;19.46;82.38;101343.31;5096289;28;20414;-49
2023/06/11 05:51:01;;;;;;;21.38;19.13;;;;;;;19.51;81.35;101344.19;5096408;28;20016;-48
2023/06/11 05:53:26;;;;;;;20.52;18.23;;;;;;;19.60;81.96;101352.06;5095463;28;20391;-50
2023/06/11 05:55:52;;;;;;;20.75;18.40;;;;;;;19.66;82.55;101346.78;5096309;28;20379;-47
2023/06/11 05:58:17;;;;;;;22.65;18.85;;;;;;;19.74;81.38;101345.06;5096107;28;20490;-47
2023/06/11 06:00:42;;;;;;;20.35;18.35;;;;;;;19.83;80.63;101344.22;5095516;28;20027;-49
2023/06/11 06:03:08;;;;;;;21.77;17.63;;;;;;;19.93;80.67;101352.06;5096338;28;20073;-44
2023/06/11 06:05:34;;;;;;;19.38;16.42;;;;;;;19.98;79.88;101348.56;5095995;28;20036;-48
2023/06/11 06:07:59;;;;;;;17.98;16.20;;;;;;;20.05;79.40;101347.69;5095303;28;20458;-47
2023/06/11 06:10:24;;;;;;;19.10;16.02;;;;;;;20.15;79.23;101355.50;5095953;28;20032;-48
2023/06/11 06:12:50;;;;;;;17.55;15.25;;;;;;;20.25;78.83;101352.00;5095942;28;20498;-46
2023/06/11 06:15:15;;;;;;;19.88;15.32;;;;;;;20.34;78.62;101358.97;5095234;28;20024;-45
2023/06/11 06:17:40;;;;;;;17.10;14.90;;;;;;;20.49;77.93;101356.31;5096023;28;20062;-48
2023/06/11 06:20:08;;;;;;;17.83;15.80;;;;;;;20.56;77.22;101357.13;5095864;28;20031;-46
2023/06/11 06:22:33;;;;;;;17.65;14.85;;;;;;;20.66;77.59;101368.47;5094683;28;20075;-48
2023/06/11 06:24:58;;;;;;;16.60;14.80;;;;;;;20.76;77.29;101356.22;5095753;28;20048;-47
2023/06/11 06:27:23;;;;;;;16.00;14.45;;;;;;;20.87;76.43;101363.13;5095143;28;20115;-48
2023/06/11 06:29:49;;;;;;;15.10;13.48;;;;;;;20.95;76.17;101360.47;5095157;28;20395;-48
2023/06/11 06:32:14;;;;;;;15.95;13.55;;;;;;;21.09;75.89;101363.03;5095779;28;20421;-46
2023/06/11 06:34:40;;;;;;;14.63;13.13;;;;;;;21.17;73.62;101365.59;5094787;28;20468;-48
2023/06/11 06:37:05;;;;;;;14.65;13.07;;;;;;;21.29;74.25;101365.53;5095549;28;20095;-48
2023/06/11 06:39:31;;;;;;;16.45;12.50;;;;;;;21.40;72.74;101367.22;5094979;28;20024;-47
2023/06/11 06:41:56;;;;;;;14.50;11.88;;;;;;;21.54;72.18;101371.50;5094798;28;20812;-47
2023/06/11 06:44:21;;;;;;;13.88;11.45;;;;;;;21.62;71.40;101368.81;5095223;28;20471;-45
2023/06/11 06:46:47;;;;;;;12.02;10.48;;;;;;;21.77;71.93;101372.19;5095605;28;20026;-49
2023/06/11 06:49:12;;;;;;;12.77;11.00;;;;;;;21.89;71.91;101377.34;5094618;28;20020;-50
2023/06/11 06:51:37;;;;;;;13.55;10.27;;;;;;;21.98;69.79;101374.63;5095005;28;20024;-45
2023/06/11 06:54:03;;;;;;;14.40;10.20;;;;;;;22.10;69.84;101376.25;5095505;28;20020;-49
2023/06/11 06:56:29;;;;;;;12.48;10.52;;;;;;;22.22;69.76;101367.41;5094153;28;20541;-49
2023/06/11 06:58:54;;;;;;;13.48;10.75;;;;;;;22.30;69.47;101362.91;5095839;28;20039;-47
2023/06/11 07:01:19;;;;;;;10.55;9.07;;;;;;;22.46;67.85;101373.28;5094881;28;20020;-46
2023/06/11 07:03:45;;;;;;;13.98;9.57;;;;;;;22.52;67.39;101365.34;5094248;28;20348;-47
2023/06/11 07:06:10;;;;;;;14.15;9.52;;;;;;;22.58;66.03;101372.28;5095031;28;20027;-50
2023/06/11 07:08:38;;;;;;;10.60;8.90;;;;;;;22.66;66.32;101371.28;5094558;28;20034;-48
2023/06/11 07:11:03;;;;;;;11.35;9.30;;;;;;;22.77;65.90;101372.91;5094338;28;20115;-43
2023/06/11 07:13:28;;;;;;;11.18;8.27;;;;;;;22.88;66.25;101365.78;5094686;28;20543;-47
2023/06/11 07:15:53;;;;;;;11.48;8.43;;;;;;;23.05;65.91;101373.41;5094930;28;20024;-49
2023/06/11 07:18:19;;;;;;;11.02;8.57;;;;;;;23.12;64.68;101368.94;5093847;28;20093;-44
2023/06/11 07:20:44;;;;;;;10.27;8.55;;;;;;;23.27;64.12;101373.16;5094678;28;20102;-46
2023/06/11 07:23:10;;;;;;;9.90;8.45;;;;;;;23.48;64.97;101371.94;5094696;28;20035;-48
2023/06/11 07:25:37;;;;;;;9.70;8.70;;;;;;;23.59;63.54;101370.00;5093728;28;20085;-45
2023/06/11 07:28:04;;;;;;;14.23;8.38;;;;;;;23.77;64.72;101374.09;5094698;28;20120;-48
2023/06/11 07:30:30;;;;;;;9.75;7.97;;;;;;;23.88;63.30;101380.94;5094333;28;20025;-48
2023/06/11 07:32:56;;;;;;;11.70;8.02;;;;;;;23.85;60.90;101371.31;5093788;28;20024;-49
2023/06/11 07:35:22;;;;;;;10.27;7.97;;;;;;;23.99;61.98;101376.38;5094203;28;20101;-49
2023/06/11 07:37:48;;;;;;;9.52;7.88;;;;;;;24.09;62.21;101375.31;5094341;28;20031;-47
2023/06/11 07:40:15;;;;;;;9.52;7.95;;;;;;;24.22;61.05;101375.97;5093796;28;20529;-48
2023/06/11 07:42:41;;;;;;;8.90;8.00;;;;;;;24.40;60.88;101379.13;5094338;28;20070;-48
2023/06/11 07:45:07;;;;;;;14.15;8.02;;;;;;;24.36;58.57;101380.09;5093535;28;20039;-46
2023/06/11 07:47:32;;;;;;;14.32;8.50;;;;;;;24.44;57.57;101376.41;5093951;28;20028;-49
2023/06/11 07:49:57;;;;;;;12.38;8.15;;;;;;;24.52;58.04;101375.38;5094192;28;20024;-47
2023/06/11 07:52:23;;;;;;;9.57;7.80;;;;;;;24.55;57.24;101373.53;5093233;28;20101;-50
2023/06/11 07:54:48;;;;;;;9.65;7.45;;;;;;;24.68;57.21;101373.34;5094225;28;20027;-48
2023/06/11 07:57:13;;;;;;;12.68;7.82;;;;;;;24.75;57.65;101374.91;5094349;28;20024;-48
2023/06/11 07:59:40;;;;;;;8.77;7.88;;;;;;;24.79;56.84;101379.22;5093006;28;20027;-49
2023/06/11 08:02:07;;;;;;;8.55;7.47;;;;;;;24.93;57.69;101377.19;5093973;28;20020;-47
2023/06/11 08:04:32;;;;;;;9.88;7.55;;;;;;;25.18;57.12;101378.38;5093447;28;20387;-47
2023/06/11 08:06:58;;;;;;;11.52;7.28;;;;;;;25.21;56.60;101387.09;5092939;28;20020;-48
2023/06/11 08:09:23;;;;;;;10.65;7.15;;;;;;;25.29;55.32;101382.53;5093356;28;20028;-49
2023/06/11 08:11:48;;;;;;;9.93;7.50;;;;;;;25.37;54.91;101379.72;5093934;28;20367;-49
2023/06/11 08:14:18;;;;;;;11.23;7.25;;;;;;;25.45;53.87;101382.19;5093052;28;20498;-48
2023/06/11 08:16:43;;;;;;;10.15;7.28;;;;;;;25.63;54.39;101381.72;5093723;28;20103;-49
2023/06/11 08:19:08;;;;;;;8.90;7.45;;;;;;;25.67;53.78;101382.53;5093846;28;20107;-47
2023/06/11 08:21:34;;;;;;;11.23;7.55;;;;;;;25.77;54.22;101377.84;5092263;28;20052;-46
2023/06/11 08:23:59;;;;;;;9.02;7.13;;;;;;;25.82;51.99;101377.75;5093575;28;20060;-49
2023/06/11 08:26:25;;;;;;;9.27;7.35;;;;;;;25.74;51.46;101376.16;5093374;28;20384;-48
2023/06/11 08:28:50;;;;;;;8.63;6.78;;;;;;;25.87;53.22;101376.72;5092847;28;20035;-47
2023/06/11 08:31:16;;;;;;;9.75;7.07;;;;;;;25.94;52.89;101365.09;5093310;28;20077;-46
2023/06/11 08:33:41;;;;;;;8.40;7.18;;;;;;;26.07;52.81;101365.66;5093207;28;20052;-48
2023/06/11 08:36:06;;;;;;;11.95;7.63;;;;;;;26.36;54.80;101371.06;5092592;28;20043;-49
2023/06/11 08:38:32;;;;;;;8.23;7.28;;;;;;;26.37;51.70;101362.22;5093129;28;20523;-47
2023/06/11 08:40:57;;;;;;;8.00;7.10;;;;;;;26.57;51.55;101367.81;5093108;28;20024;-47
2023/06/11 08:43:23;;;;;;;12.38;7.47;;;;;;;26.70;49.78;101367.41;5092123;28;20022;-48
2023/06/11 08:45:49;;;;;;;10.20;7.45;;;;;;;26.79;50.42;101367.16;5093122;28;20032;-46
2023/06/11 08:48:18;;;;;;;8.40;7.35;;;;;;;26.87;50.55;101364.28;5092969;28;20024;-45
2023/06/11 08:50:44;;;;;;;9.35;6.85;;;;;;;26.89;49.83;101360.69;5093029;28;20020;-48
2023/06/11 08:53:12;;;;;;;13.32;7.20;;;;;;;27.10;49.57;101358.28;5093459;28;20024;-49
2023/06/11 08:55:38;;;;;;;11.23;7.30;;;;;;;27.14;48.28;101367.88;5092290;28;20027;-48
2023/06/11 08:58:03;;;;;;;7.25;6.45;;;;;;;27.18;47.57;101361.56;5092985;28;20110;-48
2023/06/11 09:00:29;;;;;;;7.90;6.57;;;;;;;27.26;47.64;101364.81;5092649;28;20024;-49
2023/06/11 09:02:54;;;;;;;9.35;6.07;;;;;;;27.17;46.78;101353.69;5092319;28;20039;-49
2023/06/11 09:05:21;;;;;;;10.00;6.32;;;;;;;27.30;46.83;101355.00;5092441;28;20111;-48
2023/06/11 09:07:50;;;;;;;8.65;6.50;;;;;;;27.33;47.12;101359.34;5093161;28;20051;-46
2023/06/11 09:10:17;;;;;;;12.80;7.05;;;;;;;27.44;46.03;101357.25;5091929;28;20096;-49
2023/06/11 09:12:43;;;;;;;10.60;6.53;;;;;;;27.51;46.75;101352.59;5093071;28;20081;-46
2023/06/11 09:15:09;;;;;;;6.68;5.90;;;;;;;27.75;46.43;101348.28;5092886;28;20016;-49
2023/06/11 09:17:39;;;;;;;10.50;6.60;;;;;;;28.00;46.89;101350.06;5091711;28;20020;-48
2023/06/11 09:20:07;;;;;;;8.07;6.20;;;;;;;28.12;45.00;101349.66;5094219;28;20099;-46
2023/06/11 09:22:35;;;;;;;10.70;6.35;;;;;;;28.30;44.89;101352.53;5096565;28;20044;-49
2023/06/11 09:25:16;;;;;;;8.57;6.45;;;;;;;28.35;44.36;101350.59;5096273;28;20043;-49
2023/06/11 09:27:42;;;;;;;9.48;6.40;;;;;;;28.49;44.09;101348.28;5096995;28;20043;-44
2023/06/11 09:30:09;;;;;;;8.13;6.50;;;;;;;28.63;43.40;101357.50;5096801;28;20472;-47
2023/06/11 09:32:42;;;;;;;7.65;6.20;;;;;;;28.58;44.51;101357.69;5095658;28;20371;-48
2023/06/11 09:35:09;;;;;;;10.80;6.53;;;;;;;28.69;44.19;101351.97;5096981;28;20043;-46
2023/06/11 09:37:45;;;;;;;9.90;6.27;;;;;;;28.74;43.17;101347.34;5095932;28;20041;-47
2023/06/11 09:40:14;;;;;;;9.40;6.35;;;;;;;28.82;42.19;101345.28;5096889;28;20412;-46
2023/06/11 09:42:43;;;;;;;7.60;6.57;;;;;;;28.87;41.53;101353.94;5096295;28;20028;-47
2023/06/11 09:45:13;;;;;;;9.05;6.28;;;;;;;28.76;41.23;101352.63;5096021;28;20028;-45
2023/06/11 09:47:39;;;;;;;8.75;5.88;;;;;;;28.98;40.43;101353.50;5096433;28;20039;-44
2023/06/11 09:50:05;;;;;;;11.02;6.00;;;;;;;29.24;40.34;101352.47;5096551;28;20024;-43
2023/06/11 09:52:32;;;;;;;9.68;6.03;;;;;;;29.20;39.34;101356.13;5095441;28;20472;-46
2023/06/11 09:54:58;;;;;;;7.68;6.03;;;;;;;29.34;39.90;101344.16;5096407;28;20050;-45
2023/06/11 09:57:24;;;;;;;8.18;5.55;;;;;;;29.92;40.02;101359.41;5096012;28;20036;-47
2023/06/11 09:59:50;;;;;;;7.60;5.63;;;;;;;29.87;38.05;101356.06;5095759;28;20070;-46
2023/06/11 10:02:15;;;;;;;8.53;5.47;;;;;;;30.72;37.09;101352.28;5096011;28;20099;-44
2023/06/11 10:04:41;;;;;;;7.40;5.40;;;;;;;30.47;37.49;101358.75;5096056;28;20374;-47
2023/06/11 10:07:10;;;;;;;6.60;5.82;;;;;;;30.20;37.35;101361.72;5095514;28;20102;-46
2023/06/11 10:09:38;;;;;;;8.18;5.53;;;;;;;30.35;36.83;101361.94;5095740;28;20784;-47
2023/06/11 10:12:04;;;;;;;9.95;5.38;;;;;;;30.32;35.91;101367.41;5096347;28;20032;-46
2023/06/11 10:14:29;;;;;;;8.70;5.28;;;;;;;30.91;35.82;101354.94;5094949;28;20431;-47
2023/06/11 10:16:56;;;;;;;5.80;4.97;;;;;;;30.61;34.64;101357.25;5095993;28;20539;-47
2023/06/11 10:19:22;;;;;;;5.78;4.93;;;;;;;31.13;34.86;101349.47;5095723;28;20039;-45
2023/06/11 10:21:51;;;;;;;6.93;4.97;;;;;;;32.39;33.87;101357.25;5095118;28;20123;-46
2023/06/11 10:24:22;;;;;;;7.72;5.28;;;;;;;32.52;31.83;101357.44;5095362;28;20395;-42
2023/06/11 10:27:03;;;;;;;6.65;5.05;;;;;;;34.03;31.97;101361.25;5095310;28;20024;-46
2023/06/11 10:29:28;;;;;;;11.75;4.85;;;;;;;34.28;29.92;101359.72;5095706;28;20024;-46
2023/06/11 10:31:56;;;;;;;8.33;4.73;;;;;;;34.56;29.55;101366.03;5095310;28;20028;-46
2023/06/11 10:34:21;;;;;;;7.47;5.18;;;;;;;35.01;27.72;101360.50;5094632;28;20505;-46
2023/06/11 10:36:46;;;;;;;7.80;4.90;;;;;;;35.63;27.46;101357.25;5095701;28;20176;-45
2023/06/11 10:39:22;;;;;;;7.80;4.50;;;;;;;35.36;27.62;101358.16;5095745;28;20479;-45
2023/06/11 10:41:59;;;;;;;7.93;4.57;;;;;;;35.30;27.66;101369.25;5095024;28;20021;-46
2023/06/11 10:44:25;;;;;;;5.75;4.28;;;;;;;35.60;26.31;101357.47;5095202;28;20035;-46
2023/06/11 10:46:53;;;;;;;9.60;4.10;;;;;;;35.31;27.10;101362.94;5095504;28;20019;-47
2023/06/11 10:49:25;;;;;;;7.75;4.57;;;;;;;34.53;26.89;101366.25;5094165;28;20502;-47
2023/06/11 10:51:52;;;;;;;7.20;4.68;;;;;;;34.85;26.22;101353.47;5095555;28;20115;-48
2023/06/11 10:54:28;;;;;;;6.15;4.50;;;;;;;35.15;26.91;101360.44;5095259;28;20027;-47
2023/06/11 10:56:54;;;;;;;6.60;4.50;;;;;;;34.61;27.10;101351.38;5094718;28;20019;-48
2023/06/11 10:59:20;;;;;;;6.13;4.22;;;;;;;34.90;26.40;101359.38;5095052;28;20023;-46
2023/06/11 11:01:46;;;;;;;6.05;3.92;;;;;;;35.42;25.15;101346.19;5095015;28;20425;-47
2023/06/11 11:04:11;;;;;;;8.47;4.33;;;;;;;35.34;25.98;101348.47;5094529;28;20471;-47
2023/06/11 11:06:38;;;;;;;8.87;4.00;;;;;;;35.60;25.41;101341.38;5095148;28;20028;-46
2023/06/11 11:09:04;;;;;;;6.60;4.13;;;;;;;35.01;25.75;101350.63;5094383;28;20012;-48
2023/06/11 11:11:29;;;;;;;6.13;4.10;;;;;;;35.18;24.71;101340.63;5094808;28;20039;-46